Time;durP1;ratioP1;P1;durP2;ratioP2;P2;SDS_P1;SDS_P2;PMS_P1;PMS_P2;Temp;Humidity;BMP_temperature;BMP_pressure;BME280_temperature;BME280_humidity;BME280_pressure;Samples;Min_cycle;Max_cycle;Signal;HPM_P1;HPM_P2
2023/12/21 00:02:40;;;;;;;1.50;1.40;;;;;;;;;;10362028;28;20196;-74
2023/12/21 00:07:40;;;;;;;1.90;1.20;;;;;;;;;;10362105;28;20651;-75
2023/12/21 00:12:40;;;;;;;1.77;1.00;;;;;;;;;;10361903;28;20217;-75
2023/12/21 00:17:40;;;;;;;2.43;1.20;;;;;;;;;;10357281;28;20554;-75
2023/12/21 00:22:40;;;;;;;1.20;1.10;;;;;;;;;;10361989;28;20455;-76
2023/12/21 00:27:41;;;;;;;1.33;1.13;;;;;;;;;;10360619;28;20241;-76
2023/12/21 00:32:41;;;;;;;1.50;1.03;;;;;;;;;;10356548;28;20723;-76
2023/12/21 00:37:41;;;;;;;2.33;1.00;;;;;;;;;;10357111;28;20670;-76
2023/12/21 00:42:42;;;;;;;1.00;1.00;;;;;;;;;;10361292;28;20196;-76
2023/12/21 00:47:42;;;;;;;0.97;0.90;;;;;;;;;;10360446;28;20280;-76
2023/12/21 00:52:42;;;;;;;0.77;0.70;;;;;;;;;;10359847;28;20584;-75
2023/12/21 00:57:43;;;;;;;1.27;0.70;;;;;;;;;;10360483;28;20185;-75
2023/12/21 01:02:43;;;;;;;0.93;0.60;;;;;;;;;;10360291;28;20189;-76
2023/12/21 01:07:43;;;;;;;0.80;0.80;;;;;;;;;;10357158;28;20455;-76
2023/12/21 01:12:43;;;;;;;0.80;0.80;;;;;;;;;;10356179;28;20295;-76
2023/12/21 01:17:43;;;;;;;0.80;0.80;;;;;;;;;;10360375;28;20197;-76
2023/12/21 01:22:44;;;;;;;0.70;0.70;;;;;;;;;;10359666;28;20185;-76
2023/12/21 01:27:44;;;;;;;0.60;0.60;;;;;;;;;;10359409;28;20242;-76
2023/12/21 01:32:44;;;;;;;0.60;0.60;;;;;;;;;;10359309;28;20268;-76
2023/12/21 01:37:44;;;;;;;0.60;0.60;;;;;;;;;;10354864;28;20269;-76
2023/12/21 01:42:44;;;;;;;0.60;0.60;;;;;;;;;;10354992;28;20575;-76
2023/12/21 01:47:46;;;;;;;0.60;0.60;;;;;;;;;;10358239;28;20194;-75
2023/12/21 01:52:46;;;;;;;0.60;0.60;;;;;;;;;;10355922;28;20256;-76
2023/12/21 01:57:47;;;;;;;0.50;0.50;;;;;;;;;;10358449;28;20197;-74
2023/12/21 02:02:47;;;;;;;0.70;0.70;;;;;;;;;;10356106;28;20185;-75
2023/12/21 02:07:47;;;;;;;0.60;0.60;;;;;;;;;;10356281;28;20673;-75
2023/12/21 02:12:48;;;;;;;0.60;0.60;;;;;;;;;;10356727;28;20267;-75
2023/12/21 02:17:48;;;;;;;0.70;0.70;;;;;;;;;;10357870;28;20193;-75
2023/12/21 02:22:49;;;;;;;0.60;0.60;;;;;;;;;;10356460;28;20185;-76
2023/12/21 02:27:49;;;;;;;0.70;0.70;;;;;;;;;;10356812;28;20240;-75
2023/12/21 02:32:49;;;;;;;0.70;0.70;;;;;;;;;;10356469;28;20217;-74
2023/12/21 02:37:50;;;;;;;1.43;0.70;;;;;;;;;;10356107;28;20651;-74
2023/12/21 02:42:50;;;;;;;0.70;0.70;;;;;;;;;;10349682;28;20198;-75
2023/12/21 02:47:50;;;;;;;0.73;0.70;;;;;;;;;;10356253;28;20228;-74
2023/12/21 02:52:50;;;;;;;0.60;0.60;;;;;;;;;;10355484;28;20220;-74
2023/12/21 02:57:51;;;;;;;0.90;0.80;;;;;;;;;;10356236;28;20633;-74
2023/12/21 03:02:51;;;;;;;1.03;0.67;;;;;;;;;;10355453;28;20646;-74
2023/12/21 03:07:53;;;;;;;0.70;0.70;;;;;;;;;;10355310;28;20197;-74
2023/12/21 03:12:54;;;;;;;0.60;0.60;;;;;;;;;;10338054;28;20225;-74
2023/12/21 03:17:54;;;;;;;0.60;0.60;;;;;;;;;;10345290;28;20660;-74
2023/12/21 03:22:54;;;;;;;0.70;0.70;;;;;;;;;;10352689;28;20217;-73
2023/12/21 03:27:54;;;;;;;0.97;0.80;;;;;;;;;;10355085;28;20237;-74
2023/12/21 03:32:55;;;;;;;0.70;0.70;;;;;;;;;;10354675;28;20475;-74
2023/12/21 03:37:55;;;;;;;1.80;0.70;;;;;;;;;;10355349;28;20201;-74
2023/12/21 03:42:55;;;;;;;0.67;0.67;;;;;;;;;;10354865;28;20445;-75
2023/12/21 03:47:55;;;;;;;0.77;0.77;;;;;;;;;;10354682;28;20197;-76
2023/12/21 03:52:55;;;;;;;0.60;0.60;;;;;;;;;;10354740;28;20213;-75
2023/12/21 03:57:59;;;;;;;0.70;0.70;;;;;;;;;;10354895;28;20500;-75
2023/12/21 04:03:00;;;;;;;0.60;0.60;;;;;;;;;;10354017;28;20208;-75
2023/12/21 04:08:00;;;;;;;0.67;0.67;;;;;;;;;;10354465;28;20205;-75
2023/12/21 04:13:00;;;;;;;0.70;0.70;;;;;;;;;;10354331;28;20237;-75
2023/12/21 04:18:00;;;;;;;0.70;0.70;;;;;;;;;;10354277;28;20328;-74
2023/12/21 04:23:01;;;;;;;0.60;0.60;;;;;;;;;;10353632;28;20186;-75
2023/12/21 04:28:01;;;;;;;0.60;0.60;;;;;;;;;;10368080;28;20818;-75
2023/12/21 04:33:01;;;;;;;0.60;0.60;;;;;;;;;;10356498;28;20291;-74
2023/12/21 04:38:03;;;;;;;0.70;0.70;;;;;;;;;;10360188;28;20632;-75
2023/12/21 04:43:03;;;;;;;0.70;0.70;;;;;;;;;;10375108;28;20224;-74
2023/12/21 04:48:04;;;;;;;0.70;0.70;;;;;;;;;;10358969;28;20866;-75
2023/12/21 04:53:04;;;;;;;0.60;0.60;;;;;;;;;;10359714;28;20209;-75
2023/12/21 04:58:04;;;;;;;0.60;0.60;;;;;;;;;;10354795;28;20252;-76
2023/12/21 05:03:05;;;;;;;0.60;0.60;;;;;;;;;;10354273;28;20192;-75
2023/12/21 05:08:05;;;;;;;0.70;0.70;;;;;;;;;;10361419;28;20637;-76
2023/12/21 05:13:05;;;;;;;0.70;0.70;;;;;;;;;;10360952;28;20221;-76
2023/12/21 05:18:06;;;;;;;3.97;2.73;;;;;;;;;;10360194;28;20201;-76
2023/12/21 05:23:06;;;;;;;2.33;1.80;;;;;;;;;;10360390;28;20197;-76
2023/12/21 05:28:06;;;;;;;0.70;0.70;;;;;;;;;;10359203;28;20259;-76
2023/12/21 05:33:07;;;;;;;0.80;0.80;;;;;;;;;;10359768;28;20225;-75
2023/12/21 05:38:07;;;;;;;0.60;0.60;;;;;;;;;;10360009;28;20276;-76
2023/12/21 05:43:07;;;;;;;0.80;0.80;;;;;;;;;;10357794;28;20208;-76
2023/12/21 05:48:07;;;;;;;0.80;0.80;;;;;;;;;;10359648;28;20189;-76
2023/12/21 05:53:07;;;;;;;0.60;0.60;;;;;;;;;;10359279;28;20232;-76
2023/12/21 05:58:07;;;;;;;0.60;0.60;;;;;;;;;;10359189;28;20197;-76
2023/12/21 06:03:08;;;;;;;0.60;0.60;;;;;;;;;;10358900;28;20193;-76
2023/12/21 06:08:08;;;;;;;0.70;0.70;;;;;;;;;;10325486;28;20202;-76
2023/12/21 06:13:08;;;;;;;0.60;0.60;;;;;;;;;;10313062;28;20221;-76
2023/12/21 06:18:09;;;;;;;0.60;0.60;;;;;;;;;;10357922;28;20448;-76
2023/12/21 06:23:09;;;;;;;0.70;0.70;;;;;;;;;;10358535;28;20568;-76
2023/12/21 06:28:09;;;;;;;0.70;0.70;;;;;;;;;;10357529;28;20294;-76
2023/12/21 06:33:09;;;;;;;0.60;0.60;;;;;;;;;;10357465;28;20640;-76
2023/12/21 06:38:10;;;;;;;0.73;0.73;;;;;;;;;;10352222;28;20599;-77
2023/12/21 06:43:10;;;;;;;0.60;0.60;;;;;;;;;;10357176;28;20193;-76
2023/12/21 06:48:10;;;;;;;0.60;0.60;;;;;;;;;;10353725;28;20206;-76
2023/12/21 06:53:15;;;;;;;0.70;0.70;;;;;;;;;;10357135;28;20221;-76
2023/12/21 06:58:15;;;;;;;0.67;0.67;;;;;;;;;;10357088;28;20487;-76
2023/12/21 07:03:15;;;;;;;0.60;0.60;;;;;;;;;;10355480;28;20289;-76
2023/12/21 07:08:16;;;;;;;0.60;0.60;;;;;;;;;;10356986;28;20519;-76
2023/12/21 07:13:17;;;;;;;0.70;0.70;;;;;;;;;;10356340;28;20216;-77
2023/12/21 07:18:17;;;;;;;0.73;0.73;;;;;;;;;;10356502;28;20266;-77
2023/12/21 07:23:17;;;;;;;0.60;0.60;;;;;;;;;;10356073;28;20902;-76
2023/12/21 07:28:17;;;;;;;0.60;0.60;;;;;;;;;;10356684;28;20596;-77
2023/12/21 07:33:17;;;;;;;0.90;0.90;;;;;;;;;;10350087;28;20321;-76
2023/12/21 07:38:18;;;;;;;0.70;0.70;;;;;;;;;;10351941;28;20751;-76
2023/12/21 07:43:18;;;;;;;1.00;1.00;;;;;;;;;;10355768;28;20290;-76
2023/12/21 07:48:18;;;;;;;1.40;1.30;;;;;;;;;;10355801;28;20205;-76
2023/12/21 07:53:18;;;;;;;0.67;0.67;;;;;;;;;;10355632;28;20598;-76
2023/12/21 07:58:18;;;;;;;0.77;0.60;;;;;;;;;;10343771;28;20300;-76
2023/12/21 08:03:19;;;;;;;0.60;0.60;;;;;;;;;;10344170;28;20863;-76
2023/12/21 08:08:19;;;;;;;0.70;0.70;;;;;;;;;;10349373;28;20614;-76
2023/12/21 08:13:20;;;;;;;0.60;0.60;;;;;;;;;;10361650;28;20312;-76
2023/12/21 08:18:21;;;;;;;0.83;0.83;;;;;;;;;;10363949;28;20198;-76
2023/12/21 08:23:21;;;;;;;1.27;1.17;;;;;;;;;;10363864;28;20182;-76
2023/12/21 08:28:21;;;;;;;2.10;1.87;;;;;;;;;;10361779;28;20972;-76
2023/12/21 08:33:22;;;;;;;1.17;1.10;;;;;;;;;;10352462;28;20236;-76
2023/12/21 08:38:22;;;;;;;0.67;0.67;;;;;;;;;;10357600;28;20193;-75
2023/12/21 08:43:22;;;;;;;0.70;0.70;;;;;;;;;;10350917;28;20186;-76
2023/12/21 08:48:23;;;;;;;1.53;1.40;;;;;;;;;;10362150;28;20833;-76
2023/12/21 08:53:23;;;;;;;0.67;0.67;;;;;;;;;;10360683;28;20234;-76
2023/12/21 08:58:24;;;;;;;0.60;0.60;;;;;;;;;;10361998;28;20440;-75
2023/12/21 09:03:24;;;;;;;0.60;0.60;;;;;;;;;;10360955;28;20556;-76
2023/12/21 09:08:24;;;;;;;1.47;1.37;;;;;;;;;;10341954;28;20197;-75
2023/12/21 09:13:24;;;;;;;2.73;2.20;;;;;;;;;;10361887;28;20224;-75
2023/12/21 09:18:25;;;;;;;0.90;0.90;;;;;;;;;;10358330;28;20182;-76
2023/12/21 09:23:25;;;;;;;0.53;0.53;;;;;;;;;;10358438;28;20711;-75
2023/12/21 09:28:25;;;;;;;1.30;1.20;;;;;;;;;;10357035;28;20244;-75
2023/12/21 09:33:25;;;;;;;0.63;0.63;;;;;;;;;;10356573;28;20252;-74
2023/12/21 09:38:25;;;;;;;0.90;0.90;;;;;;;;;;10352584;28;20200;-75
2023/12/21 09:43:27;;;;;;;2.63;1.00;;;;;;;;;;10357393;28;20698;-75
2023/12/21 09:48:27;;;;;;;0.60;0.60;;;;;;;;;;10374044;28;20668;-75
2023/12/21 09:53:28;;;;;;;2.33;1.23;;;;;;;;;;10355745;28;20328;-75
2023/12/21 09:58:30;;;;;;;1.40;1.00;;;;;;;;;;10357761;28;20259;-75
2023/12/21 10:03:32;;;;;;;1.07;0.80;;;;;;;;;;10355568;28;20196;-75
2023/12/21 10:08:33;;;;;;;0.80;0.70;;;;;;;;;;10339345;28;20228;-75
2023/12/21 10:13:36;;;;;;;1.03;0.93;;;;;;;;;;10353564;28;20260;-75
2023/12/21 10:18:36;;;;;;;0.70;0.70;;;;;;;;;;10354722;28;20584;-76
2023/12/21 10:23:37;;;;;;;0.60;0.60;;;;;;;;;;10356644;28;20200;-75
2023/12/21 10:28:38;;;;;;;0.57;0.57;;;;;;;;;;10357756;28;20710;-75
2023/12/21 10:33:40;;;;;;;0.60;0.60;;;;;;;;;;10353123;28;20182;-75
2023/12/21 10:38:41;;;;;;;0.60;0.60;;;;;;;;;;10354555;28;20538;-75
2023/12/21 10:43:41;;;;;;;0.80;0.80;;;;;;;;;;10345456;28;20186;-75
2023/12/21 10:48:42;;;;;;;0.60;0.60;;;;;;;;;;10353204;28;20534;-76
2023/12/21 10:53:42;;;;;;;0.67;0.67;;;;;;;;;;10353828;28;20193;-76
2023/12/21 10:58:42;;;;;;;0.70;0.70;;;;;;;;;;10353167;28;20243;-76
2023/12/21 11:03:43;;;;;;;0.60;0.60;;;;;;;;;;10352991;28;20193;-76
2023/12/21 11:08:44;;;;;;;2.40;1.63;;;;;;;;;;10343896;28;20344;-76
2023/12/21 11:13:47;;;;;;;0.60;0.60;;;;;;;;;;10331416;28;20540;-76
2023/12/21 11:18:48;;;;;;;0.63;0.63;;;;;;;;;;10349443;28;20236;-76
2023/12/21 11:23:48;;;;;;;0.50;0.50;;;;;;;;;;10324877;28;20433;-75
2023/12/21 11:28:49;;;;;;;0.80;0.80;;;;;;;;;;10346223;28;20229;-75
2023/12/21 11:33:49;;;;;;;0.77;0.67;;;;;;;;;;10354199;28;20192;-75
2023/12/21 11:38:51;;;;;;;2.20;0.73;;;;;;;;;;10352748;28;20196;-74
2023/12/21 11:43:56;;;;;;;1.33;1.23;;;;;;;;;;10360587;28;20190;-73
2023/12/21 11:48:56;;;;;;;0.70;0.70;;;;;;;;;;10359483;28;20333;-74
2023/12/21 11:54:02;;;;;;;1.17;0.80;;;;;;;;;;10361202;28;20190;-75
2023/12/21 11:59:06;;;;;;;1.03;0.70;;;;;;;;;;10363415;28;20288;-75
2023/12/21 12:04:40;;;;;;;0.90;0.77;;;;;;;;;;10362558;28;20217;-72
2023/12/21 12:09:40;;;;;;;0.60;0.60;;;;;;;;;;10348130;28;20248;-72
2023/12/21 12:14:40;;;;;;;0.60;0.60;;;;;;;;;;10356725;28;20320;-72
2023/12/21 12:19:40;;;;;;;0.60;0.60;;;;;;;;;;10354662;28;20451;-72
2023/12/21 12:24:42;;;;;;;0.60;0.60;;;;;;;;;;10359912;28;20220;-72
2023/12/21 12:29:43;;;;;;;0.50;0.50;;;;;;;;;;10347344;28;20229;-71
2023/12/21 12:34:44;;;;;;;0.50;0.50;;;;;;;;;;10355705;28;20221;-74
2023/12/21 12:39:51;;;;;;;0.50;0.50;;;;;;;;;;10356521;28;20193;-74
2023/12/21 12:44:51;;;;;;;0.60;0.60;;;;;;;;;;10355491;28;20186;-74
2023/12/21 12:49:52;;;;;;;2.10;1.90;;;;;;;;;;10354838;28;20582;-74
2023/12/21 12:54:52;;;;;;;0.60;0.60;;;;;;;;;;10354882;28;20475;-71
2023/12/21 12:59:56;;;;;;;0.80;0.80;;;;;;;;;;10355884;28;20228;-74
2023/12/21 13:04:58;;;;;;;0.70;0.70;;;;;;;;;;10353839;28;20527;-74
2023/12/21 13:09:58;;;;;;;3.03;1.67;;;;;;;;;;10352537;28;20216;-72
2023/12/21 13:14:58;;;;;;;2.07;0.90;;;;;;;;;;10352554;28;20218;-75
2023/12/21 13:19:58;;;;;;;2.20;2.00;;;;;;;;;;10361679;28;20717;-75
2023/12/21 13:24:59;;;;;;;1.83;1.57;;;;;;;;;;10355345;28;20190;-75
2023/12/21 13:29:59;;;;;;;1.43;1.33;;;;;;;;;;10360675;28;20316;-75
2023/12/21 13:34:59;;;;;;;2.40;1.90;;;;;;;;;;10360879;28;20594;-76
2023/12/21 13:40:00;;;;;;;0.57;0.57;;;;;;;;;;10359436;28;20194;-75
2023/12/21 13:45:03;;;;;;;0.70;0.70;;;;;;;;;;10352223;28;20197;-75
2023/12/21 13:50:04;;;;;;;0.70;0.70;;;;;;;;;;10351717;28;20606;-75
2023/12/21 13:55:04;;;;;;;0.80;0.80;;;;;;;;;;10357901;28;20186;-75
2023/12/21 14:00:07;;;;;;;0.80;0.80;;;;;;;;;;10358847;28;20655;-75
2023/12/21 14:05:12;;;;;;;0.70;0.70;;;;;;;;;;10358864;28;20205;-74
2023/12/21 14:10:12;;;;;;;0.63;0.60;;;;;;;;;;10358952;28;20691;-75
2023/12/21 14:15:12;;;;;;;0.60;0.60;;;;;;;;;;10359333;28;20181;-75
2023/12/21 14:20:12;;;;;;;0.60;0.60;;;;;;;;;;10358651;28;20644;-75
2023/12/21 14:25:13;;;;;;;0.60;0.60;;;;;;;;;;10356407;28;20209;-75
2023/12/21 14:30:13;;;;;;;0.70;0.70;;;;;;;;;;10347952;28;20275;-76
2023/12/21 14:35:14;;;;;;;2.40;0.77;;;;;;;;;;10358430;28;20941;-75
2023/12/21 14:40:27;;;;;;;0.80;0.70;;;;;;;;;;10526910;28;21093;-67
2023/12/21 14:45:27;;;;;;;0.70;0.70;;;;;;;;;;10533242;28;20217;-67
2023/12/21 14:50:28;;;;;;;1.50;1.30;;;;;;;;;;10526324;28;20451;-66
2023/12/21 14:55:28;;;;;;;1.07;1.00;;;;;;;;;;10526456;28;20302;-67
2023/12/21 15:00:28;;;;;;;0.60;0.60;;;;;;;;;;10524217;28;20194;-66
2023/12/21 15:05:28;;;;;;;0.97;0.87;;;;;;;;;;10532401;28;20589;-67
2023/12/21 15:10:29;;;;;;;0.67;0.67;;;;;;;;;;10532421;28;20187;-67
2023/12/21 15:15:29;;;;;;;0.80;0.80;;;;;;;;;;10524644;28;20199;-67
2023/12/21 15:20:29;;;;;;;0.60;0.60;;;;;;;;;;10522489;28;20182;-67
2023/12/21 15:25:29;;;;;;;0.70;0.70;;;;;;;;;;10533781;28;20676;-66
2023/12/21 15:30:30;;;;;;;0.70;0.70;;;;;;;;;;10518452;28;20206;-66
2023/12/21 15:35:30;;;;;;;0.70;0.70;;;;;;;;;;10525238;28;20282;-66
2023/12/21 15:40:30;;;;;;;1.23;0.70;;;;;;;;;;10524615;28;20233;-67
2023/12/21 15:45:30;;;;;;;0.60;0.60;;;;;;;;;;10530194;28;20211;-68
2023/12/21 15:50:31;;;;;;;0.50;0.50;;;;;;;;;;10519185;22;20183;-71
2023/12/21 15:55:32;;;;;;;0.67;0.67;;;;;;;;;;10365343;28;20193;-69
2023/12/21 16:00:32;;;;;;;0.70;0.70;;;;;;;;;;10372986;28;20196;-69
2023/12/21 16:05:32;;;;;;;0.70;0.70;;;;;;;;;;10373778;28;21509;-68
2023/12/21 16:10:32;;;;;;;0.80;0.80;;;;;;;;;;10380214;28;20730;-69
2023/12/21 16:15:33;;;;;;;0.60;0.60;;;;;;;;;;10373707;28;20271;-68
2023/12/21 16:20:33;;;;;;;1.03;0.83;;;;;;;;;;10373227;28;20728;-69
2023/12/21 16:25:34;;;;;;;0.90;0.90;;;;;;;;;;10373218;28;20189;-70
2023/12/21 16:30:35;;;;;;;1.13;0.90;;;;;;;;;;10379265;28;20233;-69
2023/12/21 16:35:36;;;;;;;4.37;2.80;;;;;;;;;;10379631;28;20309;-69
2023/12/21 16:40:37;;;;;;;13.50;6.83;;;;;;;;;;10372480;28;20287;-69
2023/12/21 16:45:37;;;;;;;2.87;1.00;;;;;;;;;;10372572;28;20227;-69
2023/12/21 16:50:38;;;;;;;1.07;0.80;;;;;;;;;;10378146;28;20256;-68
2023/12/21 16:55:38;;;;;;;1.93;0.90;;;;;;;;;;10371207;28;20200;-68
2023/12/21 17:00:38;;;;;;;2.03;1.00;;;;;;;;;;10370789;28;20216;-68
2023/12/21 17:05:38;;;;;;;4.53;1.10;;;;;;;;;;10372188;28;20201;-68
2023/12/21 17:10:39;;;;;;;4.43;1.13;;;;;;;;;;10377709;28;20633;-68
2023/12/21 17:15:42;;;;;;;1.13;1.00;;;;;;;;;;10371247;28;20199;-68
2023/12/21 17:20:42;;;;;;;1.10;0.80;;;;;;;;;;10377535;28;20205;-68
2023/12/21 17:25:43;;;;;;;1.10;1.10;;;;;;;;;;10370902;28;20620;-69
2023/12/21 17:30:44;;;;;;;0.73;0.73;;;;;;;;;;10370819;28;20654;-68
2023/12/21 17:35:45;;;;;;;0.67;0.67;;;;;;;;;;10370647;28;20217;-68
2023/12/21 17:40:45;;;;;;;0.80;0.80;;;;;;;;;;10370330;28;20209;-68
2023/12/21 17:45:45;;;;;;;1.00;1.00;;;;;;;;;;10376984;28;20192;-68
2023/12/21 17:50:45;;;;;;;1.87;1.53;;;;;;;;;;10369821;28;20235;-69
2023/12/21 17:55:46;;;;;;;1.40;1.00;;;;;;;;;;10369855;28;20706;-68
2023/12/21 18:00:46;;;;;;;0.90;0.80;;;;;;;;;;10369740;28;20686;-68
2023/12/21 18:05:46;;;;;;;1.10;1.10;;;;;;;;;;10376109;28;20204;-68
2023/12/21 18:10:46;;;;;;;2.63;0.90;;;;;;;;;;10369390;28;20220;-68
2023/12/21 18:15:47;;;;;;;0.90;0.90;;;;;;;;;;10369103;28;20292;-69
2023/12/21 18:20:49;;;;;;;1.10;1.00;;;;;;;;;;10369280;28;20212;-68
2023/12/21 18:25:49;;;;;;;1.60;0.80;;;;;;;;;;10375377;28;20922;-68
2023/12/21 18:30:50;;;;;;;1.20;1.10;;;;;;;;;;10368848;28;20223;-69
2023/12/21 18:35:50;;;;;;;2.70;1.20;;;;;;;;;;10368760;28;20217;-69
2023/12/21 18:40:50;;;;;;;2.90;1.53;;;;;;;;;;10368587;28;20212;-69
2023/12/21 18:45:51;;;;;;;3.80;1.80;;;;;;;;;;10375109;28;20197;-69
2023/12/21 18:50:53;;;;;;;1.33;1.03;;;;;;;;;;10368192;28;20241;-70
2023/12/21 18:55:53;;;;;;;6.70;2.57;;;;;;;;;;10368543;28;20225;-70
2023/12/21 19:00:53;;;;;;;4.73;1.50;;;;;;;;;;10369651;28;20216;-70
2023/12/21 19:05:53;;;;;;;7.67;1.40;;;;;;;;;;10373712;28;20303;-70
2023/12/21 19:10:55;;;;;;;2.67;1.00;;;;;;;;;;10368855;28;20236;-69
2023/12/21 19:15:56;;;;;;;2.50;1.60;;;;;;;;;;10367510;28;20679;-70
2023/12/21 19:20:56;;;;;;;5.00;1.20;;;;;;;;;;10374136;28;20213;-69
2023/12/21 19:25:57;;;;;;;5.50;1.23;;;;;;;;;;10373243;28;20208;-70
2023/12/21 19:30:59;;;;;;;3.50;1.37;;;;;;;;;;10375087;28;20225;-70
2023/12/21 19:36:01;;;;;;;1.83;1.03;;;;;;;;;;10374616;28;20240;-69
2023/12/21 19:41:02;;;;;;;1.53;0.90;;;;;;;;;;10363532;28;20213;-70
2023/12/21 19:46:02;;;;;;;1.50;1.03;;;;;;;;;;10374576;28;20579;-70
2023/12/21 19:51:02;;;;;;;4.50;1.10;;;;;;;;;;10373892;28;20236;-70
2023/12/21 19:56:03;;;;;;;2.20;1.00;;;;;;;;;;10374354;28;20220;-69
2023/12/21 20:01:03;;;;;;;5.17;1.40;;;;;;;;;;10380155;28;20476;-69
2023/12/21 20:06:04;;;;;;;5.40;1.20;;;;;;;;;;10373700;28;20181;-69
2023/12/21 20:11:04;;;;;;;3.90;1.20;;;;;;;;;;10373521;28;21069;-69
2023/12/21 20:16:04;;;;;;;6.87;1.20;;;;;;;;;;10373276;28;20243;-69
2023/12/21 20:21:05;;;;;;;6.40;1.60;;;;;;;;;;10379834;28;20267;-69
2023/12/21 20:26:05;;;;;;;7.97;1.87;;;;;;;;;;10372962;28;20472;-68
2023/12/21 20:31:05;;;;;;;10.27;1.80;;;;;;;;;;10373323;28;20258;-68
2023/12/21 20:36:05;;;;;;;6.07;1.53;;;;;;;;;;10375346;28;20205;-68
2023/12/21 20:41:05;;;;;;;7.23;1.43;;;;;;;;;;10376000;28;20471;-68
2023/12/21 20:46:08;;;;;;;9.90;1.90;;;;;;;;;;10372067;28;20244;-68
2023/12/21 20:51:08;;;;;;;7.43;1.80;;;;;;;;;;10371572;28;20232;-68
2023/12/21 20:56:09;;;;;;;5.90;2.00;;;;;;;;;;10378069;28;20548;-68
2023/12/21 21:01:09;;;;;;;14.90;2.77;;;;;;;;;;10371927;28;20557;-69
2023/12/21 21:06:09;;;;;;;14.63;2.67;;;;;;;;;;10372021;28;20208;-68
2023/12/21 21:11:10;;;;;;;14.50;3.03;;;;;;;;;;10371368;28;20262;-69
2023/12/21 21:16:11;;;;;;;9.13;1.97;;;;;;;;;;10378163;28;20304;-69
2023/12/21 21:21:11;;;;;;;11.73;2.40;;;;;;;;;;10370919;28;20213;-69
2023/12/21 21:26:11;;;;;;;14.40;2.23;;;;;;;;;;10370930;28;20185;-69
2023/12/21 21:31:15;;;;;;;10.13;2.50;;;;;;;;;;10370851;28;20699;-69
2023/12/21 21:36:16;;;;;;;22.50;2.20;;;;;;;;;;10374670;28;20296;-68
2023/12/21 21:41:16;;;;;;;12.77;2.63;;;;;;;;;;10370526;28;20749;-68
2023/12/21 21:46:16;;;;;;;15.63;3.90;;;;;;;;;;10369556;28;20252;-68
2023/12/21 21:51:17;;;;;;;13.43;2.77;;;;;;;;;;10370215;28;20255;-68
2023/12/21 21:56:20;;;;;;;14.27;2.83;;;;;;;;;;10376277;28;20292;-68
2023/12/21 22:01:20;;;;;;;11.90;2.53;;;;;;;;;;10369786;28;20288;-68
2023/12/21 22:06:21;;;;;;;13.67;2.33;;;;;;;;;;10369348;28;20283;-67
2023/12/21 22:11:22;;;;;;;8.93;1.93;;;;;;;;;;10374222;28;20212;-67
2023/12/21 22:16:22;;;;;;;19.37;2.67;;;;;;;;;;10370973;28;20216;-67
2023/12/21 22:21:23;;;;;;;8.93;2.53;;;;;;;;;;10368793;28;20591;-67
2023/12/21 22:26:23;;;;;;;10.00;2.13;;;;;;;;;;10368970;28;20216;-68
2023/12/21 22:31:24;;;;;;;12.70;2.33;;;;;;;;;;10375247;28;20303;-68
2023/12/21 22:36:24;;;;;;;16.33;2.53;;;;;;;;;;10368642;28;20633;-68
2023/12/21 22:41:24;;;;;;;10.27;2.30;;;;;;;;;;10368629;28;20244;-68
2023/12/21 22:46:24;;;;;;;12.70;2.60;;;;;;;;;;10368369;28;20189;-68
2023/12/21 22:51:24;;;;;;;10.50;2.80;;;;;;;;;;10374288;28;20241;-67
2023/12/21 22:56:25;;;;;;;8.82;1.95;;;;;;;;;;10367695;28;20221;-68
2023/12/21 23:01:25;;;;;;;10.23;2.40;;;;;;;;;;10373672;28;20212;-67
2023/12/21 23:06:25;;;;;;;11.73;2.80;;;;;;;;;;10375367;28;20193;-68
2023/12/21 23:11:25;;;;;;;17.43;2.50;;;;;;;;;;10377501;28;20298;-67
2023/12/21 23:16:25;;;;;;;13.63;2.47;;;;;;;;;;10376026;28;20224;-68
2023/12/21 23:21:26;;;;;;;19.50;3.27;;;;;;;;;;10375661;28;20205;-68
2023/12/21 23:26:26;;;;;;;13.20;2.57;;;;;;;;;;10376087;28;20209;-69
2023/12/21 23:31:29;;;;;;;8.43;2.23;;;;;;;;;;10381908;28;20255;-69
2023/12/21 23:36:30;;;;;;;11.53;2.50;;;;;;;;;;10375257;28;20221;-69
2023/12/21 23:41:30;;;;;;;16.40;3.47;;;;;;;;;;10375179;28;20222;-69
2023/12/21 23:46:30;;;;;;;17.20;4.03;;;;;;;;;;10380758;28;20663;-69
2023/12/21 23:51:30;;;;;;;20.13;3.40;;;;;;;;;;10375018;28;20291;-69
2023/12/21 23:56:30;;;;;;;20.87;2.97;;;;;;;;;;10374210;28;20562;-69
